Schedule Details

Flight Number: ASX138X
Departure: Tromsø Airport (ENTC) at 00:00
Arrival: Gdansk im. Lecha Walesy (EPGD) at 00:00
Route: ROSKO M609 BDO T63 BAMIP P600 NETAV L199 GEVRU N133 DOMAG T240 OGDAV

Weather Information
ENTC 272250Z 23019KT 9999 OVC044 09/02 Q1026 RMK WIND 2600FT 22015KT
EPGD 272300Z 06004KT 020V110 CAVOK 16/15 Q1025

Schedule Frequency

Route Map